createdAt,value
2019-05-28T00:04:53.724Z,53.25
2019-05-28T00:13:14.959Z,53.23
2019-05-28T00:21:38.224Z,53.60
2019-05-28T00:29:59.462Z,53.96
2019-05-28T00:38:20.974Z,54.00
2019-05-28T00:46:42.440Z,54.23
2019-05-28T00:55:03.542Z,53.95
2019-05-28T01:03:24.987Z,53.68
2019-05-28T01:11:46.129Z,54.17
2019-05-28T01:20:07.356Z,54.21
2019-05-28T01:28:28.515Z,54.10
2019-05-28T01:36:50.032Z,54.48
2019-05-28T01:45:12.234Z,54.55
2019-05-28T01:53:33.747Z,55.01
2019-05-28T02:01:55.181Z,54.28
2019-05-28T02:10:16.452Z,54.51
2019-05-28T02:18:37.898Z,54.94
2019-05-28T02:26:59.046Z,54.62
2019-05-28T02:35:21.067Z,54.55
2019-05-28T02:43:42.294Z,54.96
2019-05-28T02:52:03.502Z,55.03
2019-05-28T03:00:24.608Z,55.07
2019-05-28T03:08:45.904Z,54.69
2019-05-28T03:17:07.056Z,54.96
2019-05-28T03:25:28.179Z,55.59
2019-05-28T03:33:49.458Z,55.46
2019-05-28T03:42:10.912Z,55.52
2019-05-28T03:50:32.061Z,56.10
2019-05-28T03:58:53.529Z,57.33
2019-05-28T04:07:14.957Z,57.42
2019-05-28T04:15:36.430Z,58.03
2019-05-28T04:23:57.662Z,59.12
2019-05-28T04:32:18.824Z,60.31
2019-05-28T04:40:40.247Z,60.17
2019-05-28T04:49:01.542Z,60.02
2019-05-28T04:57:22.673Z,60.17
2019-05-28T05:05:44.147Z,60.12
2019-05-28T05:14:06.249Z,60.10
2019-05-28T05:22:27.389Z,59.59
2019-05-28T05:30:48.515Z,59.79
2019-05-28T05:39:09.757Z,59.77
2019-05-28T05:47:31.426Z,60.33
2019-05-28T05:55:53.532Z,59.66
2019-05-28T06:04:15.108Z,59.55
2019-05-28T06:12:36.573Z,59.43
2019-05-28T06:21:09.206Z,59.58
2019-05-28T06:29:20.709Z,59.77
2019-05-28T06:37:41.892Z,60.16
2019-05-28T06:46:03.339Z,59.86
2019-05-28T06:54:25.454Z,60.11
2019-05-28T07:02:46.888Z,59.72
2019-05-28T07:11:08.295Z,59.57
2019-05-28T07:19:29.580Z,59.96
2019-05-28T07:28:07.223Z,59.80
2019-05-28T07:36:13.830Z,59.04
2019-05-28T07:44:35.357Z,60.94
2019-05-28T07:52:56.466Z,60.86
2019-05-28T08:01:17.614Z,60.59
2019-05-28T08:09:39.110Z,58.70
2019-05-28T08:18:00.263Z,55.84
2019-05-28T08:26:22.263Z,55.98
2019-05-28T08:34:43.412Z,57.53
2019-05-28T08:43:04.681Z,56.46
2019-05-28T08:51:25.808Z,54.47
2019-05-28T08:59:47.321Z,58.17
2019-05-28T09:08:08.594Z,54.65
2019-05-28T09:16:29.996Z,56.23
2019-05-28T09:24:52.505Z,58.70
2019-05-28T09:33:13.765Z,58.16
2019-05-28T09:41:34.949Z,57.14
2019-05-28T09:49:56.412Z,58.27
2019-05-28T09:58:17.690Z,55.94
2019-05-28T10:06:41.642Z,55.93
2019-05-28T10:15:02.034Z,55.40
2019-05-28T10:23:23.518Z,54.50
2019-05-28T10:31:44.928Z,53.97
2019-05-28T10:40:07.085Z,52.10
2019-05-28T10:48:29.140Z,52.37
2019-05-28T10:56:51.177Z,52.34
2019-05-28T11:05:12.310Z,54.77
2019-05-28T11:13:33.706Z,54.76
2019-05-28T11:21:55.230Z,56.96
2019-05-28T11:30:16.357Z,64.13
2019-05-28T11:38:37.495Z,75.77
2019-05-28T11:46:58.990Z,75.02
2019-05-28T11:55:20.263Z,71.76
2019-05-28T12:03:41.370Z,71.46
2019-05-28T12:12:02.983Z,73.05
2019-05-28T12:20:24.259Z,71.25
2019-05-28T12:28:45.378Z,69.51
2019-05-28T12:37:06.898Z,60.13
2019-05-28T12:45:35.491Z,55.12
2019-05-28T12:53:51.710Z,53.90
2019-05-28T13:02:13.161Z,49.00
2019-05-28T13:10:34.289Z,51.71
2019-05-28T13:18:55.431Z,52.68
2019-05-28T13:27:18.502Z,54.48
2019-05-28T13:35:39.875Z,55.22
2019-05-28T13:44:01.394Z,56.64
2019-05-28T13:52:22.541Z,58.12
2019-05-28T14:00:44.080Z,57.12
2019-05-28T14:09:05.346Z,53.02
2019-05-28T14:17:26.597Z,48.32
2019-05-28T14:25:47.746Z,50.03
2019-05-28T14:34:09.299Z,49.33
2019-05-28T14:42:30.496Z,52.31
2019-05-28T14:50:51.660Z,53.99
2019-05-28T14:59:13.354Z,55.34
2019-05-28T15:07:34.582Z,53.19
2019-05-28T15:15:56.070Z,53.91
2019-05-28T15:24:18.141Z,53.06
2019-05-28T15:32:39.192Z,54.65
2019-05-28T15:41:01.289Z,54.83
2019-05-28T15:49:22.656Z,56.64
2019-05-28T15:57:44.087Z,56.94
2019-05-28T16:06:05.340Z,57.14
2019-05-28T16:14:26.533Z,57.46
2019-05-28T16:22:47.965Z,57.51
2019-05-28T16:31:12.793Z,57.35
2019-05-28T16:39:32.228Z,57.99
2019-05-28T16:47:53.373Z,56.80
2019-05-28T16:56:15.502Z,57.76
2019-05-28T17:04:36.762Z,57.98
2019-05-28T17:12:57.885Z,58.18
2019-05-28T17:21:19.048Z,57.68
2019-05-28T17:29:40.558Z,58.41
2019-05-28T17:38:01.699Z,58.96
2019-05-28T17:46:23.179Z,59.12
2019-05-28T17:54:44.339Z,58.75
2019-05-28T18:03:05.499Z,58.87
2019-05-28T18:11:27.017Z,59.35
2019-05-28T18:19:48.146Z,60.15
2019-05-28T18:28:09.397Z,60.21
2019-05-28T18:36:30.845Z,59.53
2019-05-28T18:44:52.985Z,59.35
2019-05-28T18:53:14.493Z,58.54
2019-05-28T19:01:36.261Z,59.46
2019-05-28T19:09:57.596Z,58.72
2019-05-28T19:18:19.616Z,58.57
2019-05-28T19:26:41.176Z,58.42
2019-05-28T19:35:07.029Z,57.76
2019-05-28T19:43:25.865Z,58.09
2019-05-28T19:51:47.146Z,58.53
2019-05-28T20:00:08.646Z,59.00
2019-05-28T20:08:30.244Z,60.32
2019-05-28T20:16:51.462Z,60.39
2019-05-28T20:25:13.043Z,60.48
2019-05-28T20:33:34.169Z,60.60
2019-05-28T20:41:55.706Z,60.91
2019-05-28T20:50:17.125Z,61.04
2019-05-28T20:58:40.581Z,60.80
2019-05-28T21:07:01.415Z,60.41
2019-05-28T21:15:22.553Z,60.46
2019-05-28T21:23:44.010Z,58.54
2019-05-28T21:32:05.467Z,57.31
2019-05-28T21:40:26.913Z,57.67
2019-05-28T21:48:48.340Z,58.45
2019-05-28T21:57:09.468Z,58.84
2019-05-28T22:05:30.609Z,58.56
2019-05-28T22:13:51.751Z,58.59
2019-05-28T22:22:13.290Z,58.60
2019-05-28T22:30:34.736Z,59.00
2019-05-28T22:38:55.998Z,58.59
2019-05-28T22:47:17.974Z,59.25
2019-05-28T22:55:39.523Z,58.37
2019-05-28T23:04:00.956Z,58.97
2019-05-28T23:12:22.461Z,59.25
2019-05-28T23:20:44.633Z,59.16
2019-05-28T23:29:05.831Z,59.78
2019-05-28T23:37:27.153Z,59.96
2019-05-28T23:45:48.680Z,59.95
2019-05-28T23:54:10.089Z,59.91
